Avon, Iowa
Current Conditions -  °F | °C
As of 12:54 PM on Friday 31 Oct 2014 (Local Time) from KDSM Reporting Station
Clear Clear  
Wind Chill: 33°   Ceiling: Unl
Heat Index: 40°   Visibility: 10mi
Dew Point: 19°   Wind: 13mph
Humidity: 43%   Direction: 340°NNW
Pressure: 30.5"   Gusts: 24mph
Location:  41.4707°N, 93.4797°W
Report Text: KDSM 311754Z 34011G21KT 10SM CLR 04/M07 A3050 RMK AO2 SLP335 T00441072 10044 21011 58001
Loading
Personal Weather Stations






























Interactive Weather Map
Tropical Storm Tracking
New forecast layout! Learn more

10-Day Weather Forecast

Advertisements
Track Severe Weather on mobile